Time;durP1;ratioP1;P1;durP2;ratioP2;P2;SDS_P1;SDS_P2;PMS_P1;PMS_P2;Temp;Humidity;BMP_temperature;BMP_pressure;BME280_temperature;BME280_humidity;BME280_pressure;Samples;Min_cycle;Max_cycle;Signal;HPM_P1;HPM_P2
2023/08/12 00:01:25;;;;;;;10.30;6.45;;;19.50;99.90;;;;;;5049290;28;20455;-90
2023/08/12 00:03:51;;;;;;;10.77;7.00;;;19.20;99.90;;;;;;5065179;28;20905;-91
2023/08/12 00:06:17;;;;;;;8.32;5.53;;;19.20;99.90;;;;;;5050025;28;20449;-91
2023/08/12 00:08:43;;;;;;;9.60;5.83;;;19.20;99.90;;;;;;5065744;28;20970;-91
2023/08/12 00:11:08;;;;;;;10.52;6.45;;;19.40;99.90;;;;;;5049473;28;20415;-90
2023/08/12 00:13:34;;;;;;;7.70;5.67;;;19.60;99.90;;;;;;5065638;28;20451;-90
2023/08/12 00:15:59;;;;;;;10.13;5.43;;;19.20;99.90;;;;;;5065519;28;20418;-91
2023/08/12 00:18:25;;;;;;;8.30;5.07;;;19.20;99.90;;;;;;5049390;28;20403;-91
2023/08/12 00:20:51;;;;;;;7.88;5.13;;;19.20;99.90;;;;;;5065168;28;20451;-90
2023/08/12 00:23:17;;;;;;;7.20;5.00;;;19.20;99.90;;;;;;5066590;28;21153;-91
2023/08/12 00:25:42;;;;;;;7.75;4.82;;;19.20;99.90;;;;;;5048286;28;20431;-91
2023/08/12 00:28:08;;;;;;;8.63;5.50;;;19.20;99.90;;;;;;5049266;28;20437;-90
2023/08/12 00:30:33;;;;;;;7.40;5.40;;;19.30;99.90;;;;;;5065556;28;20416;-91
2023/08/12 00:32:59;;;;;;;7.43;4.47;;;19.20;99.90;;;;;;5065510;28;20416;-91
2023/08/12 00:35:24;;;;;;;9.82;5.15;;;19.20;99.90;;;;;;5065705;28;20518;-90
2023/08/12 00:37:50;;;;;;;7.57;4.53;;;19.10;99.90;;;;;;5065313;28;20418;-91
2023/08/12 00:40:16;;;;;;;7.33;4.33;;;19.20;99.90;;;;;;5052783;28;20438;-90
2023/08/12 00:42:41;;;;;;;8.77;5.40;;;19.10;99.90;;;;;;5051940;28;20791;-91
2023/08/12 00:45:12;;;;;;;10.63;6.13;;;19.40;99.90;;;;;;5069925;28;20403;-91
2023/08/12 00:47:39;;;;;;;8.60;5.15;;;19.10;99.90;;;;;;5052242;28;20494;-90
2023/08/12 00:50:08;;;;;;;7.85;5.40;;;19.10;99.90;;;;;;5052413;28;20414;-90
2023/08/12 00:52:34;;;;;;;7.55;5.50;;;19.00;99.90;;;;;;5052656;28;20790;-90
2023/08/12 00:55:00;;;;;;;8.23;5.75;;;19.00;99.90;;;;;;5068595;28;20447;-91
2023/08/12 00:57:26;;;;;;;7.53;5.17;;;19.00;99.90;;;;;;5052870;28;20469;-91
2023/08/12 00:59:52;;;;;;;7.70;5.30;;;19.30;99.90;;;;;;5068625;28;20445;-91
2023/08/12 01:02:18;;;;;;;5.93;4.93;;;18.90;99.90;;;;;;5052657;28;20465;-91
2023/08/12 01:04:44;;;;;;;9.73;5.75;;;18.90;99.90;;;;;;5049080;28;20423;-91
2023/08/12 01:07:10;;;;;;;7.75;5.38;;;18.90;99.90;;;;;;5068796;28;20399;-91
2023/08/12 01:09:35;;;;;;;8.35;5.55;;;18.80;99.90;;;;;;5069298;28;20514;-90
2023/08/12 01:12:19;;;;;;;7.35;5.22;;;19.00;99.90;;;;;;5051723;28;20439;-90
2023/08/12 01:15:05;;;;;;;8.82;5.20;;;18.90;99.90;;;;;;5052447;28;20412;-89
2023/08/12 01:17:33;;;;;;;8.05;4.90;;;18.70;99.90;;;;;;5051732;28;20819;-90
2023/08/12 01:19:59;;;;;;;8.70;5.35;;;18.70;99.90;;;;;;5052595;28;20955;-90
2023/08/12 01:22:27;;;;;;;7.53;4.80;;;18.80;99.90;;;;;;5051935;28;20404;-91
2023/08/12 01:24:53;;;;;;;7.05;4.40;;;18.70;99.90;;;;;;5051817;28;20412;-91
2023/08/12 01:27:20;;;;;;;6.67;4.73;;;18.90;99.90;;;;;;5068634;28;20416;-92
2023/08/12 01:29:48;;;;;;;6.22;4.30;;;18.60;99.90;;;;;;5051418;28;20423;-90
2023/08/12 01:32:32;;;;;;;6.20;4.72;;;18.60;99.90;;;;;;5069519;28;20397;-91
2023/08/12 01:35:00;;;;;;;8.25;5.10;;;18.50;99.90;;;;;;5051880;28;20416;-90
2023/08/12 01:37:28;;;;;;;6.30;4.63;;;18.50;99.90;;;;;;5052093;28;20404;-90
2023/08/12 01:39:56;;;;;;;8.38;5.63;;;18.50;99.90;;;;;;5068914;28;20431;-90
2023/08/12 01:42:23;;;;;;;7.32;5.32;;;18.40;99.90;;;;;;5050995;28;20416;-90
2023/08/12 01:44:50;;;;;;;7.77;5.60;;;18.50;99.90;;;;;;5051920;28;20407;-90
2023/08/12 01:47:15;;;;;;;5.75;4.63;;;18.50;99.90;;;;;;5067419;28;20407;-90
2023/08/12 01:49:41;;;;;;;7.13;5.10;;;18.50;99.90;;;;;;5051799;28;20909;-91
2023/08/12 01:52:07;;;;;;;8.85;5.82;;;18.80;99.90;;;;;;5051027;28;20404;-91
2023/08/12 01:54:34;;;;;;;6.07;4.43;;;18.40;99.90;;;;;;5051652;28;20399;-91
2023/08/12 01:57:08;;;;;;;6.47;4.75;;;18.40;99.90;;;;;;5068171;28;20416;-92
2023/08/12 01:59:38;;;;;;;7.35;4.82;;;18.40;99.90;;;;;;5050954;28;20450;-90
2023/08/12 02:02:04;;;;;;;8.23;5.53;;;18.40;99.90;;;;;;5052089;28;20490;-91
2023/08/12 02:04:30;;;;;;;9.60;5.53;;;18.50;99.90;;;;;;5050652;28;20462;-92
2023/08/12 02:06:56;;;;;;;9.18;5.75;;;18.40;99.90;;;;;;5051582;28;20414;-91
2023/08/12 02:09:22;;;;;;;9.63;7.00;;;18.40;99.90;;;;;;5067011;28;20851;-90
2023/08/12 02:11:48;;;;;;;9.75;7.03;;;18.40;99.90;;;;;;5051416;28;20407;-91
2023/08/12 02:14:14;;;;;;;12.00;8.05;;;18.50;99.90;;;;;;5067977;28;20434;-90
2023/08/12 02:16:40;;;;;;;8.70;6.28;;;18.50;99.90;;;;;;5050717;28;20403;-90
2023/08/12 02:19:06;;;;;;;11.30;7.93;;;18.80;99.90;;;;;;5067865;28;20454;-90
2023/08/12 02:21:31;;;;;;;12.35;8.80;;;18.50;99.90;;;;;;5049764;28;20894;-90
2023/08/12 02:23:57;;;;;;;11.33;8.30;;;18.60;99.90;;;;;;5050386;28;20567;-90
2023/08/12 02:26:23;;;;;;;10.18;6.63;;;18.60;99.90;;;;;;5049394;28;21050;-91
2023/08/12 02:28:49;;;;;;;8.20;6.30;;;18.60;99.90;;;;;;5050525;28;20403;-91
2023/08/12 02:31:15;;;;;;;10.70;7.78;;;18.60;99.90;;;;;;5066502;28;20454;-90
2023/08/12 02:33:41;;;;;;;9.38;7.15;;;18.70;99.90;;;;;;5050626;28;20422;-91
2023/08/12 02:36:07;;;;;;;13.17;8.93;;;18.70;99.90;;;;;;5067452;28;20396;-91
2023/08/12 02:38:33;;;;;;;10.93;7.88;;;18.90;99.90;;;;;;5049825;28;20447;-92
2023/08/12 02:40:58;;;;;;;11.53;7.63;;;18.70;99.90;;;;;;5067416;28;20435;-90
2023/08/12 02:43:24;;;;;;;9.77;7.65;;;18.70;99.90;;;;;;5066209;28;20407;-91
2023/08/12 02:45:50;;;;;;;10.13;7.87;;;18.70;99.90;;;;;;5051138;28;20403;-91
2023/08/12 02:48:15;;;;;;;9.00;7.40;;;18.70;99.90;;;;;;5050042;28;20498;-90
2023/08/12 02:50:41;;;;;;;10.00;8.33;;;18.70;99.90;;;;;;5050513;28;20482;-91
2023/08/12 02:53:08;;;;;;;13.20;9.70;;;18.80;99.90;;;;;;5067212;28;20416;-89
2023/08/12 02:55:34;;;;;;;12.43;9.10;;;18.70;99.90;;;;;;5066388;28;20396;-90
2023/08/12 02:58:01;;;;;;;12.10;8.03;;;18.70;99.90;;;;;;5050287;28;20441;-91
2023/08/12 03:00:27;;;;;;;12.25;9.15;;;18.60;99.90;;;;;;5049191;28;20458;-91
2023/08/12 03:02:53;;;;;;;11.52;9.32;;;18.90;99.90;;;;;;5050374;28;20422;-90
2023/08/12 03:05:19;;;;;;;13.00;9.25;;;18.60;99.90;;;;;;5049525;28;20395;-91
2023/08/12 03:07:45;;;;;;;11.70;8.88;;;18.50;99.90;;;;;;5050272;28;20407;-90
2023/08/12 03:10:11;;;;;;;12.32;9.02;;;18.50;99.90;;;;;;5049786;28;20404;-90
2023/08/12 03:12:36;;;;;;;15.37;11.27;;;18.50;99.90;;;;;;5064372;28;20426;-90
2023/08/12 03:15:03;;;;;;;13.63;10.15;;;18.50;99.90;;;;;;5065881;28;20408;-91
2023/08/12 03:17:28;;;;;;;18.27;12.10;;;18.40;99.90;;;;;;5066602;28;20396;-89
2023/08/12 03:19:54;;;;;;;11.45;9.63;;;18.40;99.90;;;;;;5049972;28;20546;-90
2023/08/12 03:22:20;;;;;;;11.90;9.30;;;18.40;99.90;;;;;;5065812;28;21008;-91
2023/08/12 03:24:47;;;;;;;13.15;10.38;;;18.50;99.90;;;;;;5050650;28;20392;-91
2023/08/12 03:27:13;;;;;;;13.15;11.07;;;18.50;99.90;;;;;;5048653;28;20408;-90
2023/08/12 03:29:38;;;;;;;17.00;12.03;;;18.50;99.90;;;;;;5066706;28;20403;-90
2023/08/12 03:32:04;;;;;;;13.93;10.17;;;18.60;99.90;;;;;;5049741;28;20935;-91
2023/08/12 03:34:29;;;;;;;16.20;11.52;;;18.60;99.90;;;;;;5048910;28;20857;-90
2023/08/12 03:36:55;;;;;;;15.50;11.83;;;18.60;99.90;;;;;;5066368;28;20404;-91
2023/08/12 03:39:21;;;;;;;15.20;11.52;;;18.60;99.90;;;;;;5046197;28;20482;-91
2023/08/12 03:41:46;;;;;;;13.23;11.17;;;18.80;99.90;;;;;;5066054;28;20944;-90
2023/08/12 03:44:12;;;;;;;14.52;11.80;;;18.60;99.90;;;;;;5065695;28;20415;-91
2023/08/12 03:46:38;;;;;;;17.77;12.83;;;18.80;99.90;;;;;;5049998;28;20396;-91
2023/08/12 03:49:03;;;;;;;13.70;10.73;;;19.10;99.90;;;;;;5066436;28;20400;-90
2023/08/12 03:51:29;;;;;;;19.50;13.53;;;18.80;99.90;;;;;;5048303;28;20400;-91
2023/08/12 03:53:55;;;;;;;14.20;11.30;;;18.80;99.90;;;;;;5049533;28;21214;-91
2023/08/12 03:56:21;;;;;;;17.02;12.32;;;18.70;99.90;;;;;;5049484;28;21070;-90
2023/08/12 03:58:47;;;;;;;15.68;12.00;;;18.70;99.90;;;;;;5066551;28;20399;-91
2023/08/12 04:01:12;;;;;;;18.20;13.02;;;18.80;99.90;;;;;;5065352;28;20470;-91
2023/08/12 04:03:38;;;;;;;17.37;12.47;;;19.00;99.90;;;;;;5050009;28;20406;-90
2023/08/12 04:06:03;;;;;;;18.80;13.23;;;18.70;99.90;;;;;;5048896;28;20967;-90
2023/08/12 04:08:29;;;;;;;17.57;13.30;;;19.10;99.90;;;;;;5049657;28;20403;-90
2023/08/12 04:10:55;;;;;;;16.63;12.90;;;18.80;99.90;;;;;;5049208;28;20411;-91
2023/08/12 04:13:20;;;;;;;15.53;11.77;;;18.90;99.90;;;;;;5068495;28;20899;-90
2023/08/12 04:15:50;;;;;;;15.60;12.30;;;18.90;99.90;;;;;;5070439;28;21075;-90
2023/08/12 04:18:16;;;;;;;16.43;13.37;;;18.90;99.90;;;;;;5052934;28;20419;-91
2023/08/12 04:20:42;;;;;;;15.57;12.75;;;19.20;99.90;;;;;;5051214;28;20664;-90
2023/08/12 04:23:07;;;;;;;16.10;13.43;;;19.00;99.90;;;;;;5067838;28;20432;-91
2023/08/12 04:25:33;;;;;;;17.70;13.07;;;19.20;99.90;;;;;;5070028;28;20453;-91
2023/08/12 04:27:59;;;;;;;15.37;12.40;;;19.30;99.90;;;;;;5053191;28;20407;-91
2023/08/12 04:30:26;;;;;;;14.68;11.68;;;19.00;99.90;;;;;;5069148;28;20795;-90
2023/08/12 04:32:52;;;;;;;15.82;12.43;;;19.40;99.90;;;;;;5040242;28;21181;-91
2023/08/12 04:35:17;;;;;;;15.50;11.93;;;19.20;99.90;;;;;;5049122;28;20497;-91
2023/08/12 04:37:43;;;;;;;15.38;12.43;;;19.10;99.90;;;;;;5033061;28;20421;-90
2023/08/12 04:40:09;;;;;;;15.53;12.37;;;19.20;99.90;;;;;;5032420;28;20428;-90
2023/08/12 04:42:34;;;;;;;15.18;11.73;;;19.10;99.90;;;;;;5033395;28;20413;-90
2023/08/12 04:45:00;;;;;;;12.30;11.00;;;19.10;99.90;;;;;;5066000;28;20459;-92
2023/08/12 04:47:26;;;;;;;14.10;11.30;;;19.10;99.90;;;;;;5032495;28;20477;-91
2023/08/12 04:49:52;;;;;;;14.70;11.32;;;19.30;99.90;;;;;;5032309;28;20408;-91
2023/08/12 04:52:18;;;;;;;15.27;11.50;;;19.10;99.90;;;;;;5031628;28;20488;-91
2023/08/12 04:54:44;;;;;;;15.52;11.20;;;19.20;99.90;;;;;;5066791;28;20723;-91
2023/08/12 04:57:09;;;;;;;14.30;12.00;;;19.20;99.90;;;;;;5031560;28;20443;-90
2023/08/12 04:59:35;;;;;;;14.98;10.75;;;19.30;99.90;;;;;;5032600;28;20782;-90
2023/08/12 05:02:01;;;;;;;13.53;10.53;;;19.30;99.90;;;;;;5031876;28;20416;-90
2023/08/12 05:04:26;;;;;;;14.38;10.07;;;19.80;99.90;;;;;;5049104;28;20405;-91
2023/08/12 05:06:52;;;;;;;11.60;9.80;;;19.40;99.90;;;;;;5068526;28;20396;-91
2023/08/12 05:09:18;;;;;;;11.97;9.70;;;19.50;99.90;;;;;;5068433;28;20494;-91
2023/08/12 05:11:43;;;;;;;12.73;9.90;;;19.70;99.90;;;;;;5068975;28;20407;-91
2023/08/12 05:14:09;;;;;;;12.60;10.57;;;19.60;99.90;;;;;;5068374;28;20447;-91
2023/08/12 05:16:34;;;;;;;11.02;9.30;;;19.80;99.90;;;;;;5069031;28;20407;-92
2023/08/12 05:19:00;;;;;;;14.07;10.13;;;19.80;99.90;;;;;;5051890;28;20403;-89
2023/08/12 05:21:26;;;;;;;13.27;10.15;;;19.90;99.90;;;;;;5069273;28;20466;-92
2023/08/12 05:23:52;;;;;;;12.52;9.55;;;20.00;99.90;;;;;;5050635;28;20430;-90
2023/08/12 05:26:17;;;;;;;13.25;9.85;;;20.10;99.90;;;;;;5050718;28;21280;-91
2023/08/12 05:28:43;;;;;;;13.10;9.80;;;20.10;99.90;;;;;;5051382;28;20388;-91
2023/08/12 05:31:09;;;;;;;14.13;9.48;;;20.20;99.90;;;;;;5051659;28;20435;-91
2023/08/12 05:33:34;;;;;;;11.90;9.57;;;20.20;99.90;;;;;;5069178;28;20447;-91
2023/08/12 05:36:00;;;;;;;13.27;10.32;;;20.30;99.90;;;;;;5067469;28;20412;-91
2023/08/12 05:38:26;;;;;;;11.83;9.47;;;20.30;99.90;;;;;;5069215;28;20404;-92
2023/08/12 05:40:51;;;;;;;11.32;9.70;;;20.30;99.90;;;;;;5051392;28;20426;-90
2023/08/12 05:43:17;;;;;;;12.70;9.83;;;20.40;99.90;;;;;;5051701;28;21073;-91
2023/08/12 05:45:43;;;;;;;12.63;8.73;;;20.30;99.90;;;;;;5068514;28;20810;-90
2023/08/12 05:48:08;;;;;;;11.13;9.20;;;20.80;99.90;;;;;;5067918;28;20400;-91
2023/08/12 05:50:34;;;;;;;13.03;9.77;;;20.60;99.90;;;;;;5051364;28;20408;-91
2023/08/12 05:52:59;;;;;;;10.02;8.88;;;20.40;99.90;;;;;;5067567;28;20886;-91
2023/08/12 05:55:25;;;;;;;15.60;10.30;;;20.50;99.90;;;;;;5069168;28;20426;-91
2023/08/12 05:57:51;;;;;;;12.80;9.90;;;20.50;99.90;;;;;;5050883;28;20411;-90
2023/08/12 06:00:16;;;;;;;13.45;10.00;;;20.80;99.90;;;;;;5051737;28;20435;-91
2023/08/12 06:02:42;;;;;;;15.03;9.83;;;20.50;99.90;;;;;;5067831;28;20804;-90
2023/08/12 06:05:08;;;;;;;13.32;10.43;;;21.00;99.90;;;;;;5051196;28;20499;-91
2023/08/12 06:07:34;;;;;;;12.55;9.40;;;20.50;99.90;;;;;;5051681;28;20407;-91
2023/08/12 06:10:00;;;;;;;12.53;9.77;;;20.60;99.90;;;;;;5050644;28;20396;-92
2023/08/12 06:12:25;;;;;;;13.20;10.30;;;20.60;99.90;;;;;;5068350;28;20499;-91
2023/08/12 06:14:51;;;;;;;10.67;8.87;;;20.80;99.90;;;;;;5066750;28;20546;-91
2023/08/12 06:17:16;;;;;;;12.45;9.52;;;20.70;99.90;;;;;;5052044;28;20410;-91
2023/08/12 06:19:42;;;;;;;15.83;10.23;;;20.70;99.90;;;;;;5067419;28;20918;-91
2023/08/12 06:22:08;;;;;;;13.25;10.32;;;21.20;99.90;;;;;;5068115;28;20399;-91
2023/08/12 06:24:36;;;;;;;14.18;10.98;;;21.00;99.90;;;;;;5067933;28;20434;-91
2023/08/12 06:27:02;;;;;;;13.37;9.73;;;20.80;99.90;;;;;;5051234;28;20403;-92
2023/08/12 06:29:27;;;;;;;12.95;10.48;;;20.80;99.90;;;;;;5050974;28;20495;-91
2023/08/12 06:31:54;;;;;;;13.63;11.10;;;20.80;99.90;;;;;;5066807;28;20404;-91
2023/08/12 06:34:19;;;;;;;15.38;11.50;;;20.70;99.90;;;;;;5068050;28;20923;-91
2023/08/12 06:36:45;;;;;;;14.93;11.45;;;21.10;99.90;;;;;;5050066;28;20476;-91
2023/08/12 06:39:10;;;;;;;15.27;11.73;;;21.20;99.90;;;;;;5067762;28;20411;-92
2023/08/12 06:41:36;;;;;;;15.33;11.73;;;20.80;99.90;;;;;;5067108;28;20446;-90
2023/08/12 06:44:04;;;;;;;14.60;11.98;;;21.00;99.90;;;;;;5067027;28;20488;-92
2023/08/12 06:46:30;;;;;;;14.07;11.48;;;20.90;99.90;;;;;;5067274;28;20445;-90
2023/08/12 06:48:58;;;;;;;16.50;13.00;;;21.30;99.90;;;;;;5052448;28;20411;-90
2023/08/12 06:51:23;;;;;;;16.92;12.68;;;21.10;99.90;;;;;;5053692;28;20489;-90
2023/08/12 06:53:49;;;;;;;16.20;11.23;;;21.00;99.90;;;;;;5052445;28;20540;-91
2023/08/12 06:56:14;;;;;;;19.73;13.63;;;21.20;99.90;;;;;;5054433;28;20421;-91
2023/08/12 06:58:40;;;;;;;15.23;12.00;;;21.10;99.90;;;;;;5053088;28;20447;-91
2023/08/12 07:01:06;;;;;;;16.30;12.27;;;21.30;99.90;;;;;;5053595;28;20426;-92
2023/08/12 07:03:32;;;;;;;17.63;12.82;;;21.60;99.90;;;;;;5070526;28;20831;-91
2023/08/12 07:05:58;;;;;;;16.27;13.77;;;21.40;99.90;;;;;;5053094;28;20409;-90
2023/08/12 07:08:24;;;;;;;18.67;13.35;;;21.40;99.90;;;;;;5050168;28;20957;-92
2023/08/12 07:10:49;;;;;;;18.08;13.48;;;21.40;99.90;;;;;;5032193;28;20407;-90
2023/08/12 07:13:15;;;;;;;16.90;13.97;;;21.80;99.90;;;;;;5034313;28;20453;-92
2023/08/12 07:15:40;;;;;;;16.85;13.32;;;21.40;99.90;;;;;;5049249;28;20811;-91
2023/08/12 07:18:06;;;;;;;16.07;13.83;;;21.50;99.90;;;;;;5033912;28;20461;-93
2023/08/12 07:20:32;;;;;;;19.90;15.45;;;21.50;99.90;;;;;;5033270;28;20428;-92
2023/08/12 07:22:58;;;;;;;18.77;15.18;;;21.50;99.90;;;;;;5049589;28;20411;-90
2023/08/12 07:25:24;;;;;;;17.10;14.30;;;21.60;99.90;;;;;;5033668;28;20396;-91
2023/08/12 07:27:49;;;;;;;17.65;14.13;;;21.60;99.90;;;;;;5049091;28;20404;-90
2023/08/12 07:30:15;;;;;;;17.30;14.50;;;22.00;99.90;;;;;;5049721;28;20457;-90
2023/08/12 07:32:41;;;;;;;19.08;15.20;;;21.70;99.90;;;;;;5048508;28;20469;-90
2023/08/12 07:35:07;;;;;;;18.67;15.38;;;21.70;99.90;;;;;;5032779;28;20983;-91
2023/08/12 07:37:33;;;;;;;19.37;14.93;;;21.80;99.90;;;;;;5032045;28;20439;-91
2023/08/12 07:39:59;;;;;;;20.48;14.95;;;21.80;99.90;;;;;;5032601;28;20443;-90
2023/08/12 07:42:25;;;;;;;20.20;15.30;;;21.80;99.90;;;;;;5032212;28;20400;-90
2023/08/12 07:44:50;;;;;;;20.83;15.33;;;22.00;99.90;;;;;;5048898;28;20407;-90
2023/08/12 07:47:16;;;;;;;20.87;15.63;;;21.70;99.90;;;;;;5049037;28;20428;-91
2023/08/12 07:49:43;;;;;;;17.08;15.27;;;21.70;99.90;;;;;;5032071;28;20419;-90
2023/08/12 07:52:09;;;;;;;19.98;15.55;;;21.70;99.90;;;;;;5049377;28;20988;-90
2023/08/12 07:54:35;;;;;;;21.15;15.88;;;21.70;99.90;;;;;;5032272;28;20633;-91
2023/08/12 07:57:01;;;;;;;17.58;15.48;;;21.70;99.90;;;;;;5032388;28;20505;-91
2023/08/12 07:59:26;;;;;;;20.23;15.52;;;21.50;99.90;;;;;;5035007;28;20422;-90
2023/08/12 08:01:52;;;;;;;21.07;16.40;;;21.60;99.90;;;;;;5052449;28;20438;-92
2023/08/12 08:04:18;;;;;;;18.10;16.02;;;21.70;99.90;;;;;;5068825;28;20433;-90
2023/08/12 08:06:44;;;;;;;19.23;16.45;;;21.60;99.90;;;;;;5068661;28;20888;-92
2023/08/12 08:09:10;;;;;;;20.30;17.73;;;21.60;99.90;;;;;;5069228;28;20488;-88
2023/08/12 08:11:36;;;;;;;20.45;17.73;;;21.50;99.90;;;;;;5067466;28;20398;-91
2023/08/12 08:14:02;;;;;;;21.08;17.73;;;21.40;99.90;;;;;;5069301;28;20404;-90
2023/08/12 08:16:27;;;;;;;23.67;19.43;;;21.40;99.90;;;;;;5068715;28;20501;-88
2023/08/12 08:18:54;;;;;;;23.67;18.90;;;21.40;99.90;;;;;;5052560;28;20402;-90
2023/08/12 08:21:20;;;;;;;25.38;19.88;;;21.30;99.90;;;;;;5051932;28;20425;-90
2023/08/12 08:23:45;;;;;;;25.43;20.90;;;21.70;99.90;;;;;;5068836;28;20394;-91
2023/08/12 08:26:12;;;;;;;26.25;20.88;;;21.30;99.90;;;;;;5051834;28;20437;-90
2023/08/12 08:28:38;;;;;;;33.85;22.58;;;21.30;99.90;;;;;;5051496;28;20467;-91
2023/08/12 08:31:04;;;;;;;31.80;24.53;;;21.20;99.90;;;;;;5051728;28;20817;-89
2023/08/12 08:33:30;;;;;;;41.90;27.55;;;21.10;99.90;;;;;;5067381;28;20783;-90
2023/08/12 08:35:55;;;;;;;42.70;27.83;;;21.40;99.90;;;;;;5068458;28;20458;-90
2023/08/12 08:38:21;;;;;;;40.13;27.67;;;20.90;99.90;;;;;;5068074;28;20404;-89
2023/08/12 08:40:50;;;;;;;49.27;31.37;;;21.10;99.90;;;;;;5050662;28;20782;-90
2023/08/12 08:43:20;;;;;;;64.00;35.63;;;20.90;99.90;;;;;;5052287;28;20908;-91
2023/08/12 08:45:48;;;;;;;73.43;38.97;;;20.70;99.90;;;;;;5068207;28;20419;-89
2023/08/12 08:48:13;;;;;;;55.47;35.07;;;20.60;99.90;;;;;;5053032;28;20410;-89
2023/08/12 08:50:40;;;;;;;67.85;38.67;;;20.60;99.90;;;;;;5064403;28;20465;-91
2023/08/12 08:53:07;;;;;;;73.38;38.42;;;20.70;99.90;;;;;;5049483;28;20426;-91
2023/08/12 08:55:32;;;;;;;79.85;43.25;;;20.80;99.90;;;;;;5048095;28;20408;-90
2023/08/12 08:57:59;;;;;;;72.90;40.73;;;20.70;99.90;;;;;;5048329;28;20769;-90
2023/08/12 09:00:27;;;;;;;67.17;39.20;;;20.80;99.90;;;;;;5067588;28;20939;-92
2023/08/12 09:02:53;;;;;;;70.38;40.97;;;20.80;99.90;;;;;;5051617;28;20420;-92
2023/08/12 09:05:20;;;;;;;65.35;39.05;;;20.90;99.90;;;;;;5052807;28;20400;-92
2023/08/12 09:07:47;;;;;;;92.53;46.75;;;20.70;99.90;;;;;;5051446;28;20403;-91
2023/08/12 09:10:13;;;;;;;127.25;54.05;;;20.70;99.90;;;;;;5052666;28;20411;-91
2023/08/12 09:12:40;;;;;;;64.25;39.10;;;20.70;99.90;;;;;;5051896;28;20404;-91
2023/08/12 09:15:06;;;;;;;74.07;42.50;;;20.90;99.90;;;;;;5051680;28;20400;-92
2023/08/12 09:17:32;;;;;;;58.90;38.15;;;20.70;99.90;;;;;;5068489;28;20440;-92
2023/08/12 09:19:58;;;;;;;80.17;44.40;;;20.70;99.90;;;;;;5068012;28;20424;-90
2023/08/12 09:22:25;;;;;;;73.03;43.33;;;20.60;99.90;;;;;;5041984;28;20464;-91
2023/08/12 09:24:57;;;;;;;73.07;41.40;;;20.70;99.90;;;;;;5031241;28;20413;-93
2023/08/12 09:27:23;;;;;;;72.53;43.22;;;20.50;99.90;;;;;;5021153;28;20518;-94
2023/08/12 09:29:48;;;;;;;67.73;41.83;;;20.90;99.90;;;;;;5010906;28;20498;-92
2023/08/12 09:32:20;;;;;;;84.50;46.83;;;20.60;99.90;;;;;;5015319;28;20505;-92
2023/08/12 09:34:47;;;;;;;89.28;48.53;;;20.90;99.90;;;;;;5051697;28;20443;-92
2023/08/12 09:37:14;;;;;;;88.07;46.50;;;20.90;99.90;;;;;;5067871;28;20430;-92
2023/08/12 09:39:40;;;;;;;83.23;45.10;;;20.50;99.90;;;;;;5068615;28;20459;-93
2023/08/12 09:42:06;;;;;;;108.22;50.85;;;21.10;99.90;;;;;;5051035;28;20489;-93
2023/08/12 09:44:35;;;;;;;86.43;46.38;;;20.60;99.90;;;;;;5052160;28;20535;-95
2023/08/12 09:47:01;;;;;;;118.13;53.42;;;20.60;99.90;;;;;;5050809;28;20471;-93
2023/08/12 09:49:27;;;;;;;84.18;46.00;;;20.90;99.90;;;;;;5051249;28;20999;-94
2023/08/12 09:51:53;;;;;;;152.27;60.40;;;20.60;99.90;;;;;;5051319;28;20412;-95
2023/08/12 09:54:19;;;;;;;112.40;53.40;;;20.80;99.90;;;;;;5050618;28;20415;-95
2023/08/12 09:56:48;;;;;;;141.73;56.53;;;20.70;99.90;;;;;;5051277;28;20399;-94
2023/08/12 09:59:22;;;;;;;113.82;53.70;;;20.80;99.90;;;;;;5050192;28;20750;-95
2023/08/12 10:01:50;;;;;;;92.88;48.67;;;21.10;99.90;;;;;;5068547;28;20517;-92
2023/08/12 10:04:20;;;;;;;111.25;51.67;;;20.70;99.90;;;;;;5050396;28;20396;-95
2023/08/12 10:06:47;;;;;;;103.85;51.70;;;20.60;99.90;;;;;;5051826;28;20404;-94
2023/08/12 10:09:15;;;;;;;112.13;52.47;;;20.60;99.90;;;;;;5051875;28;20407;-94
2023/08/12 10:11:43;;;;;;;110.80;51.90;;;20.60;99.90;;;;;;5049769;28;20433;-95
2023/08/12 10:14:25;;;;;;;108.10;50.53;;;20.90;99.90;;;;;;5054890;28;20407;-94
2023/08/12 10:17:00;;;;;;;146.13;56.83;;;20.50;99.90;;;;;;5059446;28;20400;-96
2023/08/12 10:19:27;;;;;;;91.65;46.92;;;20.50;99.90;;;;;;5040199;28;20435;-94
2023/08/12 10:21:58;;;;;;;104.32;48.17;;;20.50;99.90;;;;;;5049839;28;20506;-94
2023/08/12 10:24:28;;;;;;;91.60;47.47;;;20.50;99.90;;;;;;5053900;28;20412;-96
2023/08/12 10:26:58;;;;;;;152.25;57.30;;;20.60;99.90;;;;;;5050915;28;21123;-96
2023/08/12 10:29:26;;;;;;;159.27;55.83;;;20.90;99.90;;;;;;5052706;28;20404;-94
2023/08/12 10:31:52;;;;;;;97.30;49.42;;;20.50;99.90;;;;;;5051105;28;20427;-96
2023/08/12 10:34:23;;;;;;;184.80;60.43;;;20.70;99.90;;;;;;5049557;28;20411;-94
2023/08/12 10:36:55;;;;;;;88.50;46.70;;;20.60;99.90;;;;;;5051038;28;20411;-94
2023/08/12 10:39:30;;;;;;;84.83;43.50;;;21.10;99.90;;;;;;5049142;28;20396;-94
2023/08/12 10:41:56;;;;;;;70.60;38.70;;;20.70;99.90;;;;;;5049994;28;20432;-95
2023/08/12 10:44:42;;;;;;;53.05;26.58;;;20.70;99.90;;;;;;5038110;28;20405;-94
2023/08/12 10:47:10;;;;;;;25.05;9.45;;;20.60;99.90;;;;;;5031092;28;20449;-95
2023/08/12 10:49:48;;;;;;;30.67;7.93;;;20.40;99.90;;;;;;5035789;28;20396;-94
2023/08/12 10:52:28;;;;;;;32.75;9.93;;;19.40;99.90;;;;;;5029794;28;20421;-94
2023/08/12 10:54:54;;;;;;;31.90;10.60;;;18.90;99.90;;;;;;5030851;28;21106;-93
2023/08/12 10:57:38;;;;;;;22.53;7.80;;;18.90;99.90;;;;;;5030845;28;20455;-91
2023/08/12 11:00:05;;;;;;;18.70;6.90;;;18.70;99.90;;;;;;5045677;28;20543;-92
2023/08/12 11:02:32;;;;;;;31.52;8.63;;;18.60;99.90;;;;;;5029756;28;20401;-91
2023/08/12 11:05:07;;;;;;;17.90;7.30;;;18.60;99.90;;;;;;5046198;28;20416;-93
2023/08/12 11:07:38;;;;;;;18.60;7.95;;;18.60;99.90;;;;;;5047383;28;20487;-92
2023/08/12 11:10:16;;;;;;;29.27;11.30;;;18.50;99.90;;;;;;5030481;28;20468;-94
2023/08/12 11:12:56;;;;;;;22.92;8.50;;;18.50;99.90;;;;;;5030518;28;20424;-93
2023/08/12 11:15:41;;;;;;;67.72;13.23;;;18.60;99.90;;;;;;5032559;28;20402;-94
2023/08/12 11:18:12;;;;;;;90.53;15.57;;;18.50;99.90;;;;;;5028906;28;20409;-94
2023/08/12 11:20:38;;;;;;;32.20;11.80;;;18.50;99.90;;;;;;5033465;28;20487;-94
2023/08/12 11:23:10;;;;;;;25.60;9.97;;;18.50;99.90;;;;;;5030332;28;20406;-94
2023/08/12 11:25:38;;;;;;;25.40;9.20;;;18.50;99.90;;;;;;5033550;28;20977;-95
2023/08/12 11:28:06;;;;;;;40.83;12.13;;;18.40;99.90;;;;;;5038598;28;20415;-94
2023/08/12 11:30:32;;;;;;;32.23;10.80;;;18.30;99.90;;;;;;5048960;28;20404;-93
2023/08/12 11:33:01;;;;;;;27.67;11.23;;;18.20;99.90;;;;;;5049356;28;20446;-94
2023/08/12 11:35:27;;;;;;;35.30;13.48;;;18.20;99.90;;;;;;5044626;28;20409;-94
2023/08/12 11:37:57;;;;;;;38.45;15.90;;;18.20;99.90;;;;;;5030197;28;20405;-94
2023/08/12 11:40:25;;;;;;;31.63;14.17;;;18.30;99.90;;;;;;5028798;28;20429;-93
2023/08/12 11:42:51;;;;;;;29.75;12.18;;;18.60;99.90;;;;;;5029561;28;20499;-94
2023/08/12 11:45:23;;;;;;;13.63;5.30;;;19.00;99.90;;;;;;5028879;28;20538;-93
2023/08/12 11:47:52;;;;;;;19.48;6.53;;;18.20;99.90;;;;;;5029335;28;20409;-93
2023/08/12 11:50:19;;;;;;;22.93;6.63;;;18.40;99.90;;;;;;5029845;28;20417;-93
2023/08/12 11:52:46;;;;;;;18.13;6.03;;;18.50;99.90;;;;;;5045334;28;20412;-93
2023/08/12 11:55:15;;;;;;;25.48;8.75;;;18.40;99.90;;;;;;5042555;28;20619;-93
2023/08/12 11:57:41;;;;;;;24.20;8.48;;;18.40;99.90;;;;;;5049596;28;20443;-92
2023/08/12 12:00:13;;;;;;;19.98;6.82;;;18.50;99.90;;;;;;5048276;28;20788;-88
2023/08/12 12:02:46;;;;;;;30.02;8.07;;;18.80;99.90;;;;;;5063921;28;20415;-88
2023/08/12 12:05:13;;;;;;;19.37;6.90;;;18.60;99.90;;;;;;5044609;28;20445;-87
2023/08/12 12:07:38;;;;;;;17.50;7.20;;;18.60;99.90;;;;;;5063845;28;20556;-86
2023/08/12 12:10:05;;;;;;;20.77;7.50;;;18.80;99.90;;;;;;5062819;28;20486;-86
2023/08/12 12:12:35;;;;;;;16.20;6.75;;;18.90;99.90;;;;;;5063834;28;20416;-89
2023/08/12 12:15:02;;;;;;;15.05;6.45;;;19.10;99.90;;;;;;5062276;28;20449;-86
2023/08/12 12:17:27;;;;;;;19.50;7.73;;;19.10;99.90;;;;;;5043394;28;20411;-87
2023/08/12 12:19:58;;;;;;;25.00;9.55;;;19.50;99.90;;;;;;5063064;28;20768;-86
2023/08/12 12:22:29;;;;;;;17.58;8.80;;;19.20;99.90;;;;;;5045703;28;20489;-87
2023/08/12 12:24:59;;;;;;;22.10;11.30;;;19.30;99.90;;;;;;5063792;28;20503;-87
2023/08/12 12:27:26;;;;;;;18.17;7.93;;;19.50;99.90;;;;;;5045760;28;21088;-87
2023/08/12 12:29:52;;;;;;;16.60;5.80;;;19.70;99.90;;;;;;5046130;28;20414;-86
2023/08/12 12:32:21;;;;;;;14.90;7.25;;;19.80;99.90;;;;;;5046080;28;20498;-85